createdAt,value
2019-05-10T00:00:20.527Z,13.33
2019-05-10T00:01:20.952Z,13.35
2019-05-10T00:02:21.381Z,13.38
2019-05-10T00:03:21.811Z,13.37
2019-05-10T00:04:22.241Z,13.31
2019-05-10T00:05:22.666Z,13.35
2019-05-10T00:06:23.159Z,13.38
2019-05-10T00:07:23.539Z,13.39
2019-05-10T00:08:23.982Z,13.46
2019-05-10T00:09:24.395Z,13.41
2019-05-10T00:10:24.826Z,13.38
2019-05-10T00:11:25.256Z,13.38
2019-05-10T00:12:25.696Z,13.37
2019-05-10T00:13:26.164Z,13.30
2019-05-10T00:14:26.545Z,13.37
2019-05-10T00:15:26.974Z,13.35
2019-05-10T00:16:27.403Z,13.39
2019-05-10T00:17:27.832Z,13.35
2019-05-10T00:18:28.265Z,13.35
2019-05-10T00:19:28.693Z,13.49
2019-05-10T00:20:29.131Z,13.47
2019-05-10T00:21:29.551Z,13.53
2019-05-10T00:22:29.985Z,13.56
2019-05-10T00:23:30.416Z,13.52
2019-05-10T00:24:30.846Z,13.62
2019-05-10T00:25:31.272Z,13.62
2019-05-10T00:26:31.714Z,13.65
2019-05-10T00:27:32.136Z,13.65
2019-05-10T00:28:32.565Z,13.72
2019-05-10T00:29:32.995Z,13.68
2019-05-10T00:30:33.429Z,13.70
2019-05-10T00:31:33.872Z,13.68
2019-05-10T00:32:34.289Z,13.67
2019-05-10T00:33:34.727Z,13.77
2019-05-10T00:34:35.146Z,13.77
2019-05-10T00:35:35.584Z,13.83
2019-05-10T00:36:36.011Z,13.79
2019-05-10T00:37:36.438Z,13.83
2019-05-10T00:38:36.877Z,13.79
2019-05-10T00:39:37.368Z,13.81
2019-05-10T00:40:37.739Z,13.85
2019-05-10T00:41:38.157Z,13.78
2019-05-10T00:42:38.591Z,13.79
2019-05-10T00:43:39.026Z,13.77
2019-05-10T00:44:39.453Z,13.74
2019-05-10T00:45:39.883Z,13.79
2019-05-10T00:46:40.312Z,13.62
2019-05-10T00:47:40.746Z,13.65
2019-05-10T00:48:41.185Z,13.74
2019-05-10T00:49:41.616Z,13.63
2019-05-10T00:50:42.035Z,13.65
2019-05-10T00:51:42.470Z,13.62
2019-05-10T00:52:42.891Z,13.72
2019-05-10T00:53:43.334Z,13.70
2019-05-10T00:54:43.759Z,13.70
2019-05-10T00:55:44.195Z,13.71
2019-05-10T00:56:44.631Z,13.83
2019-05-10T00:57:45.067Z,13.79
2019-05-10T00:58:45.494Z,13.86
2019-05-10T00:59:45.978Z,13.93
2019-05-10T01:00:46.337Z,13.92
2019-05-10T01:01:46.776Z,13.92
2019-05-10T01:02:47.203Z,13.95
2019-05-10T01:03:47.635Z,13.85
2019-05-10T01:04:48.065Z,13.83
2019-05-10T01:05:48.503Z,13.87
2019-05-10T01:06:48.926Z,13.79
2019-05-10T01:07:49.351Z,13.74
2019-05-10T01:08:49.792Z,13.75
2019-05-10T01:09:50.220Z,13.70
2019-05-10T01:10:50.648Z,13.65
2019-05-10T01:11:51.089Z,13.65
2019-05-10T01:12:51.509Z,13.70
2019-05-10T01:13:51.945Z,13.72
2019-05-10T01:14:52.365Z,13.71
2019-05-10T01:15:52.819Z,13.72
2019-05-10T01:16:53.225Z,13.71
2019-05-10T01:17:53.665Z,13.68
2019-05-10T01:18:54.091Z,13.59
2019-05-10T01:19:54.543Z,13.65
2019-05-10T01:20:54.955Z,13.62
2019-05-10T01:21:55.384Z,13.72
2019-05-10T01:22:55.818Z,13.68
2019-05-10T01:23:56.240Z,13.70
2019-05-10T01:24:56.670Z,13.68
2019-05-10T01:25:57.101Z,13.71
2019-05-10T01:26:57.542Z,13.65
2019-05-10T01:27:57.961Z,13.67
2019-05-10T01:28:58.394Z,13.68
2019-05-10T01:29:58.837Z,13.72
2019-05-10T01:30:59.257Z,13.72
2019-05-10T01:31:59.687Z,13.85
2019-05-10T01:33:00.113Z,13.81
2019-05-10T01:34:00.549Z,13.83
2019-05-10T01:35:00.978Z,13.86
2019-05-10T01:36:01.408Z,13.97
2019-05-10T01:37:01.835Z,13.99
2019-05-10T01:38:02.270Z,13.93
2019-05-10T01:39:02.692Z,14.03
2019-05-10T01:40:03.130Z,14.08
2019-05-10T01:41:03.562Z,14.07
2019-05-10T01:42:03.988Z,14.05
2019-05-10T01:43:04.417Z,14.04
2019-05-10T01:44:04.859Z,13.89
2019-05-10T01:45:05.284Z,13.97
2019-05-10T01:46:05.714Z,13.99
2019-05-10T01:47:06.138Z,13.95
2019-05-10T01:48:06.577Z,13.92
2019-05-10T01:49:07.013Z,14.04
2019-05-10T01:50:07.435Z,14.04
2019-05-10T01:51:07.860Z,14.07
2019-05-10T01:52:08.299Z,14.14
2019-05-10T01:53:08.722Z,14.07
2019-05-10T01:54:09.154Z,13.92
2019-05-10T01:55:09.583Z,13.99
2019-05-10T01:56:10.039Z,14.04
2019-05-10T01:57:10.445Z,14.05
2019-05-10T01:58:10.876Z,14.05
2019-05-10T01:59:11.321Z,14.10
2019-05-10T02:00:11.737Z,14.07
2019-05-10T02:01:12.170Z,14.07
2019-05-10T02:02:12.608Z,14.07
2019-05-10T02:03:13.029Z,14.23
2019-05-10T02:04:17.410Z,14.14
2019-05-10T02:05:13.890Z,14.23
2019-05-10T02:06:14.347Z,14.22
2019-05-10T02:07:14.755Z,14.17
2019-05-10T02:08:15.199Z,14.26
2019-05-10T02:09:15.616Z,14.22
2019-05-10T02:10:16.049Z,14.20
2019-05-10T02:11:16.525Z,14.20
2019-05-10T02:12:16.914Z,14.12
2019-05-10T02:13:17.351Z,14.20
2019-05-10T02:14:17.768Z,14.18
2019-05-10T02:15:18.204Z,14.18
2019-05-10T02:16:18.636Z,14.11
2019-05-10T02:17:19.070Z,14.14
2019-05-10T02:18:19.492Z,14.04
2019-05-10T02:19:19.923Z,14.12
2019-05-10T02:20:20.352Z,14.07
2019-05-10T02:21:20.788Z,14.10
2019-05-10T02:22:21.214Z,14.10
2019-05-10T02:23:21.656Z,14.12
2019-05-10T02:24:22.077Z,14.10
2019-05-10T02:25:22.508Z,14.08
2019-05-10T02:26:22.938Z,14.14
2019-05-10T02:27:23.378Z,14.18
2019-05-10T02:28:23.807Z,14.15
2019-05-10T02:29:24.237Z,14.20
2019-05-10T02:30:24.670Z,14.15
2019-05-10T02:31:25.091Z,14.17
2019-05-10T02:32:25.529Z,14.05
2019-05-10T02:33:25.956Z,14.22
2019-05-10T02:34:26.384Z,14.17
2019-05-10T02:35:26.832Z,14.17
2019-05-10T02:36:27.256Z,14.25
2019-05-10T02:37:27.683Z,14.28
2019-05-10T02:38:28.108Z,14.33
2019-05-10T02:39:28.542Z,14.33
2019-05-10T02:40:28.975Z,14.36
2019-05-10T02:41:29.410Z,14.30
2019-05-10T02:42:29.853Z,14.35
2019-05-10T02:43:30.290Z,14.32
2019-05-10T02:44:30.701Z,14.30
2019-05-10T02:45:31.124Z,14.25
2019-05-10T02:46:31.548Z,14.30
2019-05-10T02:47:31.987Z,14.23
2019-05-10T02:48:32.430Z,14.18
2019-05-10T02:49:32.848Z,14.25
2019-05-10T02:50:33.278Z,14.32
2019-05-10T02:51:33.709Z,14.26
2019-05-10T02:52:34.133Z,14.11
2019-05-10T02:53:34.586Z,14.08
2019-05-10T02:54:35.004Z,13.92
2019-05-10T02:55:35.435Z,13.99
2019-05-10T02:56:35.862Z,14.11
2019-05-10T02:57:36.297Z,14.23
2019-05-10T02:58:36.723Z,14.11
2019-05-10T02:59:37.166Z,14.11
2019-05-10T03:00:37.590Z,14.08
2019-05-10T03:01:38.018Z,14.18
2019-05-10T03:02:38.473Z,14.28
2019-05-10T03:03:38.883Z,14.33
2019-05-10T03:04:39.312Z,14.33
2019-05-10T03:05:39.745Z,14.45
2019-05-10T03:06:40.280Z,14.35
2019-05-10T03:07:40.605Z,14.50
2019-05-10T03:08:41.044Z,14.48
2019-05-10T03:09:41.466Z,14.59
2019-05-10T03:10:41.898Z,14.48
2019-05-10T03:11:42.332Z,14.53
2019-05-10T03:12:42.759Z,14.59
2019-05-10T03:13:43.197Z,14.50
2019-05-10T03:14:43.632Z,14.68
2019-05-10T03:15:44.059Z,14.69
2019-05-10T03:16:44.494Z,14.66
2019-05-10T03:17:44.919Z,14.59
2019-05-10T03:18:45.359Z,14.51
2019-05-10T03:19:45.893Z,14.55
2019-05-10T03:20:46.208Z,14.59
2019-05-10T03:21:46.660Z,14.55
2019-05-10T03:22:47.075Z,14.58
2019-05-10T03:23:47.510Z,14.40
2019-05-10T03:24:47.949Z,14.37
2019-05-10T03:25:48.367Z,14.35
2019-05-10T03:26:51.288Z,14.28
2019-05-10T03:27:49.236Z,14.25
2019-05-10T03:28:49.667Z,14.28
2019-05-10T03:29:50.095Z,14.36
2019-05-10T03:30:50.544Z,14.32
2019-05-10T03:31:50.961Z,14.37
2019-05-10T03:32:51.421Z,14.47
2019-05-10T03:33:56.929Z,14.50
2019-05-10T03:34:52.249Z,14.51
2019-05-10T03:35:52.688Z,14.60
2019-05-10T03:36:53.118Z,14.53
2019-05-10T03:37:53.565Z,14.65
2019-05-10T03:38:53.973Z,14.66
2019-05-10T03:39:54.421Z,14.66
2019-05-10T03:40:54.837Z,14.72
2019-05-10T03:41:55.267Z,14.66
2019-05-10T03:42:55.704Z,14.62
2019-05-10T03:43:56.138Z,14.63
2019-05-10T03:44:56.563Z,14.66
2019-05-10T03:45:56.993Z,14.55
2019-05-10T03:46:57.428Z,14.66
2019-05-10T03:47:57.860Z,14.63
2019-05-10T03:48:58.287Z,14.62
2019-05-10T03:49:58.722Z,14.65
2019-05-10T03:50:59.172Z,14.60
2019-05-10T03:51:59.582Z,14.60
2019-05-10T03:53:00.021Z,14.54
2019-05-10T03:54:00.451Z,14.59
2019-05-10T03:55:00.877Z,14.60
2019-05-10T03:56:01.308Z,14.59
2019-05-10T03:57:12.971Z,14.53
2019-05-10T03:58:02.172Z,14.54
2019-05-10T03:59:02.597Z,14.58
2019-05-10T04:00:03.041Z,14.45
2019-05-10T04:01:03.465Z,14.54
2019-05-10T04:02:03.896Z,14.48
2019-05-10T04:03:04.325Z,14.41
2019-05-10T04:04:08.920Z,14.41
2019-05-10T04:05:05.189Z,14.29
2019-05-10T04:06:05.628Z,14.33
2019-05-10T04:07:06.052Z,14.32
2019-05-10T04:08:06.489Z,14.33
2019-05-10T04:09:06.910Z,14.26
2019-05-10T04:10:07.348Z,14.29
2019-05-10T04:11:07.787Z,14.29
2019-05-10T04:12:08.210Z,14.25
2019-05-10T04:13:08.696Z,14.33
2019-05-10T04:14:09.072Z,14.35
2019-05-10T04:15:09.499Z,14.18
2019-05-10T04:16:09.930Z,14.25
2019-05-10T04:17:10.362Z,14.28
2019-05-10T04:18:10.795Z,14.32
2019-05-10T04:19:11.227Z,14.30
2019-05-10T04:20:11.667Z,14.25
2019-05-10T04:21:12.096Z,14.28
2019-05-10T04:22:12.519Z,14.30
2019-05-10T04:23:12.950Z,14.33
2019-05-10T04:24:13.382Z,14.33
2019-05-10T04:25:13.811Z,14.36
2019-05-10T04:26:14.245Z,14.33
2019-05-10T04:27:30.781Z,14.36
2019-05-10T04:28:15.103Z,14.33
2019-05-10T04:29:15.542Z,14.35
2019-05-10T04:30:15.982Z,14.37
2019-05-10T04:31:16.395Z,14.37
2019-05-10T04:32:16.851Z,14.30
2019-05-10T04:33:17.271Z,14.29
2019-05-10T04:34:17.704Z,14.28
2019-05-10T04:35:18.128Z,14.33
2019-05-10T04:36:18.551Z,14.36
2019-05-10T04:37:18.984Z,14.45
2019-05-10T04:38:19.419Z,14.32
2019-05-10T04:39:19.845Z,14.50
2019-05-10T04:40:20.276Z,14.53
2019-05-10T04:41:20.714Z,14.33
2019-05-10T04:42:21.142Z,14.32
2019-05-10T04:43:21.573Z,14.37
2019-05-10T04:44:22.001Z,14.30
2019-05-10T04:45:22.435Z,14.22
2019-05-10T04:46:22.873Z,14.32
2019-05-10T04:47:23.297Z,14.41
2019-05-10T04:48:23.729Z,14.17
2019-05-10T04:49:24.173Z,14.05
2019-05-10T04:50:24.613Z,13.96
2019-05-10T04:51:25.018Z,14.07
2019-05-10T04:52:25.463Z,14.18
2019-05-10T04:53:25.908Z,14.15
2019-05-10T04:54:26.313Z,14.23
2019-05-10T04:55:26.743Z,14.29
2019-05-10T04:56:27.239Z,14.33
2019-05-10T04:57:27.619Z,14.45
2019-05-10T04:58:28.034Z,14.47
2019-05-10T04:59:28.476Z,14.32
2019-05-10T05:00:28.914Z,14.45
2019-05-10T05:01:29.351Z,14.36
2019-05-10T05:02:29.766Z,14.29
2019-05-10T05:03:30.198Z,14.43
2019-05-10T05:04:30.648Z,14.33
2019-05-10T05:05:31.061Z,14.37
2019-05-10T05:06:31.509Z,14.40
2019-05-10T05:07:31.931Z,14.33
2019-05-10T05:08:32.366Z,14.41
2019-05-10T05:09:32.793Z,14.44
2019-05-10T05:10:33.211Z,14.60
2019-05-10T05:11:33.646Z,14.53
2019-05-10T05:12:34.073Z,14.37
2019-05-10T05:13:34.508Z,14.37
2019-05-10T05:14:34.939Z,14.32
2019-05-10T05:15:35.372Z,14.30
2019-05-10T05:16:35.806Z,14.36
2019-05-10T05:17:36.241Z,14.50
2019-05-10T05:18:36.666Z,14.47
2019-05-10T05:19:40.471Z,14.51
2019-05-10T05:20:37.533Z,14.68
2019-05-10T05:21:37.984Z,14.66
2019-05-10T05:22:38.393Z,14.53
2019-05-10T05:23:38.851Z,14.50
2019-05-10T05:24:39.252Z,14.60
2019-05-10T05:25:40.181Z,14.77
2019-05-10T05:26:40.139Z,14.73
2019-05-10T05:27:40.569Z,14.82
2019-05-10T05:28:40.985Z,14.92
2019-05-10T05:29:41.437Z,15.03
2019-05-10T05:30:41.858Z,15.07
2019-05-10T05:31:42.283Z,15.00
2019-05-10T05:32:44.422Z,14.96
2019-05-10T05:33:43.154Z,15.17
2019-05-10T05:34:43.579Z,15.28
2019-05-10T05:35:44.017Z,15.40
2019-05-10T05:36:44.449Z,15.46
2019-05-10T05:37:44.925Z,15.46
2019-05-10T05:38:46.881Z,15.44
2019-05-10T05:39:45.742Z,15.42
2019-05-10T05:40:46.173Z,15.37
2019-05-10T05:41:51.728Z,15.24
2019-05-10T05:42:47.043Z,15.02
2019-05-10T05:43:48.236Z,15.10
2019-05-10T05:44:47.903Z,15.25
2019-05-10T05:45:48.366Z,15.37
2019-05-10T05:46:48.803Z,15.46
2019-05-10T05:47:49.202Z,15.47
2019-05-10T05:48:51.568Z,15.18
2019-05-10T05:49:50.080Z,15.15
2019-05-10T05:50:50.534Z,15.09
2019-05-10T05:51:50.939Z,15.31
2019-05-10T05:52:51.395Z,15.06
2019-05-10T05:53:51.850Z,15.35
2019-05-10T05:54:52.945Z,15.35
2019-05-10T05:55:52.671Z,15.27
2019-05-10T05:56:53.339Z,15.31
2019-05-10T05:57:53.540Z,15.09
2019-05-10T05:58:53.982Z,15.10
2019-05-10T05:59:57.304Z,15.29
2019-05-10T06:00:54.828Z,14.99
2019-05-10T06:02:00.862Z,14.96
2019-05-10T06:02:55.720Z,15.29
2019-05-10T06:04:00.327Z,15.31
2019-05-10T06:04:56.572Z,15.35
2019-05-10T06:05:57.003Z,15.17
2019-05-10T06:06:59.119Z,15.06
2019-05-10T06:07:57.880Z,15.17
2019-05-10T06:08:59.778Z,15.18
2019-05-10T06:09:58.738Z,15.21
2019-05-10T06:10:59.970Z,15.44
2019-05-10T06:11:59.620Z,15.49
2019-05-10T06:13:00.085Z,15.62
2019-05-10T06:14:03.790Z,15.28
2019-05-10T06:15:00.912Z,15.37
2019-05-10T06:16:06.750Z,15.22
2019-05-10T06:17:01.780Z,15.42
2019-05-10T06:18:03.465Z,15.44
2019-05-10T06:19:02.647Z,15.15
2019-05-10T06:20:06.073Z,15.25
2019-05-10T06:21:03.511Z,15.55
2019-05-10T06:22:06.948Z,15.49
2019-05-10T06:23:06.982Z,15.51
2019-05-10T06:24:07.625Z,15.44
2019-05-10T06:25:05.246Z,15.40
2019-05-10T06:26:06.201Z,15.46
2019-05-10T06:27:06.145Z,15.62
2019-05-10T06:28:24.081Z,15.61
2019-05-10T06:29:16.335Z,15.91
2019-05-10T06:30:07.424Z,16.09
2019-05-10T06:31:07.849Z,16.21
2019-05-10T06:32:08.294Z,16.31
2019-05-10T06:33:12.714Z,16.15
2019-05-10T06:34:09.152Z,16.36
2019-05-10T06:35:14.121Z,16.36
2019-05-10T06:36:10.032Z,16.24
2019-05-10T06:37:10.463Z,16.43
2019-05-10T06:38:10.892Z,16.46
2019-05-10T06:39:18.607Z,16.54
2019-05-10T06:40:11.757Z,16.38
2019-05-10T06:41:16.932Z,16.50
2019-05-10T06:42:12.634Z,16.56
2019-05-10T06:43:15.424Z,16.42
2019-05-10T06:44:13.504Z,16.17
2019-05-10T06:45:16.119Z,16.23
2019-05-10T06:46:14.406Z,16.38
2019-05-10T06:47:14.814Z,16.23
2019-05-10T06:48:26.335Z,15.97
2019-05-10T06:49:15.681Z,16.28
2019-05-10T06:50:16.127Z,16.20
2019-05-10T06:51:16.605Z,15.94
2019-05-10T06:52:21.676Z,15.68
2019-05-10T06:53:17.423Z,15.29
2019-05-10T06:54:17.857Z,15.36
2019-05-10T06:55:18.292Z,15.49
2019-05-10T06:56:18.724Z,15.49
2019-05-10T06:57:19.349Z,15.46
2019-05-10T06:58:19.600Z,15.72
2019-05-10T06:59:24.961Z,15.92
2019-05-10T07:00:20.463Z,16.00
2019-05-10T07:01:20.906Z,16.01
2019-05-10T07:02:26.668Z,16.32
2019-05-10T07:03:21.780Z,16.31
2019-05-10T07:04:22.203Z,16.51
2019-05-10T07:05:22.642Z,16.72
2019-05-10T07:06:23.075Z,16.54
2019-05-10T07:07:42.469Z,16.79
2019-05-10T07:08:23.951Z,17.08
2019-05-10T07:09:24.383Z,17.05
2019-05-10T07:10:25.402Z,17.14
2019-05-10T07:11:25.257Z,17.33
2019-05-10T07:12:25.687Z,17.54
2019-05-10T07:13:26.131Z,17.76
2019-05-10T07:14:27.344Z,17.85
2019-05-10T07:15:26.999Z,18.11
2019-05-10T07:16:27.450Z,18.34
2019-05-10T07:17:27.870Z,18.44
2019-05-10T07:18:28.312Z,18.28
2019-05-10T07:19:29.035Z,18.13
2019-05-10T07:20:30.864Z,17.80
2019-05-10T07:21:29.622Z,17.36
2019-05-10T07:22:30.071Z,17.49
2019-05-10T07:23:30.531Z,17.38
2019-05-10T07:24:30.949Z,17.38
2019-05-10T07:25:31.382Z,17.74
2019-05-10T07:26:31.825Z,18.35
2019-05-10T07:27:36.685Z,18.31
2019-05-10T07:28:32.699Z,18.45
2019-05-10T07:29:41.859Z,18.47
2019-05-10T07:30:33.579Z,18.53
2019-05-10T07:31:34.038Z,17.67
2019-05-10T07:32:34.462Z,17.89
2019-05-10T07:33:37.179Z,18.26
2019-05-10T07:34:35.342Z,18.19
2019-05-10T07:35:36.683Z,19.02
2019-05-10T07:36:36.226Z,19.22
2019-05-10T07:37:36.672Z,19.21
2019-05-10T07:38:37.106Z,19.30
2019-05-10T07:39:37.549Z,19.14
2019-05-10T07:40:37.995Z,19.55
2019-05-10T07:41:38.438Z,19.70
2019-05-10T07:42:39.979Z,19.70
2019-05-10T07:43:39.319Z,18.95
2019-05-10T07:44:41.487Z,19.52
2019-05-10T07:45:40.210Z,19.67
2019-05-10T07:46:46.469Z,19.48
2019-05-10T07:47:41.088Z,19.34
2019-05-10T07:48:47.405Z,18.63
2019-05-10T07:49:41.975Z,18.25
2019-05-10T07:50:48.982Z,18.56
2019-05-10T07:51:42.861Z,18.63
2019-05-10T07:52:45.515Z,18.38
2019-05-10T07:53:43.739Z,18.29
2019-05-10T07:54:45.631Z,18.13
2019-05-10T07:55:44.631Z,17.98
2019-05-10T07:56:46.141Z,18.38
2019-05-10T07:57:45.518Z,18.01
2019-05-10T07:58:45.953Z,18.13
2019-05-10T07:59:50.656Z,18.34
2019-05-10T08:00:46.893Z,18.66
2019-05-10T08:01:49.179Z,18.77
2019-05-10T08:02:52.760Z,18.05
2019-05-10T08:03:52.349Z,18.25
2019-05-10T08:04:51.337Z,18.18
2019-05-10T08:05:55.206Z,18.38
2019-05-10T08:06:52.132Z,18.41
2019-05-10T08:07:49.919Z,18.15
2019-05-10T08:08:55.440Z,18.49
2019-05-10T08:09:50.797Z,18.34
2019-05-10T08:10:51.247Z,17.71
2019-05-10T08:11:57.636Z,18.08
2019-05-10T08:12:52.122Z,18.53
2019-05-10T08:13:52.565Z,18.28
2019-05-10T08:14:53.650Z,17.65
2019-05-10T08:15:53.452Z,18.22
2019-05-10T08:16:58.405Z,18.83
2019-05-10T08:17:54.327Z,19.24
2019-05-10T08:18:55.649Z,19.54
2019-05-10T08:19:55.216Z,19.54
2019-05-10T08:21:01.962Z,20.32
2019-05-10T08:22:00.837Z,20.29
2019-05-10T08:22:56.554Z,20.13
2019-05-10T08:23:58.991Z,20.22
2019-05-10T08:24:57.443Z,19.26
2019-05-10T08:25:57.885Z,19.45
2019-05-10T08:27:09.864Z,20.22
2019-05-10T08:27:58.772Z,20.19
2019-05-10T08:28:59.224Z,19.82
2019-05-10T08:30:28.052Z,19.51
2019-05-10T08:31:02.327Z,19.16
2019-05-10T08:32:02.864Z,20.09
2019-05-10T08:33:09.460Z,20.41
2019-05-10T08:34:02.214Z,20.10
2019-05-10T08:35:05.136Z,19.94
2019-05-10T08:36:05.114Z,19.73
2019-05-10T08:37:02.794Z,19.51
2019-05-10T08:38:04.634Z,20.09
2019-05-10T08:39:10.439Z,20.81
2019-05-10T08:40:04.140Z,21.72
2019-05-10T08:41:08.002Z,22.26
2019-05-10T08:42:28.583Z,22.62
2019-05-10T08:43:08.991Z,22.98
2019-05-10T08:44:16.613Z,22.57
2019-05-10T08:45:08.829Z,22.00
2019-05-10T08:46:06.831Z,21.93
2019-05-10T08:47:07.521Z,21.61
2019-05-10T08:48:07.723Z,21.36
2019-05-10T08:49:08.175Z,20.92
2019-05-10T08:50:22.310Z,20.55
2019-05-10T08:51:09.060Z,20.14
2019-05-10T08:52:12.049Z,18.88
2019-05-10T08:53:16.103Z,18.25
2019-05-10T08:54:12.165Z,18.22
2019-05-10T08:55:12.389Z,18.23
2019-05-10T08:56:13.668Z,17.82
2019-05-10T08:57:18.210Z,17.67
2019-05-10T08:58:12.510Z,18.04
2019-05-10T08:59:16.307Z,17.87
2019-05-10T09:00:13.281Z,17.63
2019-05-10T09:01:25.831Z,18.08
2019-05-10T09:02:14.683Z,18.37
2019-05-10T09:03:18.553Z,18.77
2019-05-10T09:04:14.817Z,18.13
2019-05-10T09:05:15.265Z,18.40
2019-05-10T09:06:16.979Z,18.49
2019-05-10T09:07:16.163Z,17.86
2019-05-10T09:08:20.386Z,18.07
2019-05-10T09:09:17.032Z,18.04
2019-05-10T09:10:17.468Z,19.07
2019-05-10T09:11:17.937Z,19.74
2019-05-10T09:12:18.363Z,20.21
2019-05-10T09:13:18.801Z,20.60
2019-05-10T09:14:19.948Z,20.22
2019-05-10T09:15:22.110Z,19.33
2019-05-10T09:16:20.145Z,19.70
2019-05-10T09:17:23.530Z,18.90
2019-05-10T09:18:22.947Z,19.40
2019-05-10T09:19:27.633Z,19.85
2019-05-10T09:20:26.324Z,18.78
2019-05-10T09:21:22.499Z,18.29
2019-05-10T09:22:24.024Z,18.45
2019-05-10T09:23:23.245Z,18.53
2019-05-10T09:24:23.699Z,18.84
2019-05-10T09:25:29.123Z,18.63
2019-05-10T09:26:24.579Z,18.22
2019-05-10T09:27:29.174Z,17.94
2019-05-10T09:28:25.454Z,17.67
2019-05-10T09:29:27.363Z,17.34
2019-05-10T09:30:26.337Z,17.15
2019-05-10T09:31:26.782Z,17.41
2019-05-10T09:32:28.888Z,18.00
2019-05-10T09:33:27.656Z,17.95
2019-05-10T09:34:28.108Z,18.52
2019-05-10T09:35:28.561Z,19.09
2019-05-10T09:36:30.895Z,19.08
2019-05-10T09:37:31.850Z,18.70
2019-05-10T09:38:34.883Z,18.95
2019-05-10T09:39:32.130Z,18.88
2019-05-10T09:40:32.757Z,19.18
2019-05-10T09:41:33.791Z,19.33
2019-05-10T09:42:37.777Z,19.37
2019-05-10T09:43:32.122Z,19.55
2019-05-10T09:44:33.042Z,19.86
2019-05-10T09:45:32.947Z,19.89
2019-05-10T09:46:33.390Z,20.55
2019-05-10T09:47:33.833Z,21.62
2019-05-10T09:48:34.273Z,22.17
2019-05-10T09:49:34.717Z,22.59
2019-05-10T09:50:41.297Z,21.43
2019-05-10T09:51:35.606Z,22.15
2019-05-10T09:52:36.070Z,22.22
2019-05-10T09:53:38.298Z,22.04
2019-05-10T09:54:38.064Z,20.82
2019-05-10T09:55:37.398Z,20.90
2019-05-10T09:56:42.121Z,20.69
2019-05-10T09:57:38.303Z,20.13
2019-05-10T09:58:38.874Z,19.91
2019-05-10T09:59:39.172Z,19.88
2019-05-10T10:00:39.615Z,19.47
2019-05-10T10:01:40.067Z,18.78
2019-05-10T10:02:40.950Z,19.26
2019-05-10T10:03:43.688Z,19.31
2019-05-10T10:04:41.390Z,19.11
2019-05-10T10:05:41.835Z,19.33
2019-05-10T10:06:48.063Z,19.02
2019-05-10T10:07:42.714Z,18.81
2019-05-10T10:08:48.175Z,18.99
2019-05-10T10:09:45.091Z,19.07
2019-05-10T10:10:44.037Z,19.07
2019-05-10T10:11:48.591Z,19.18
2019-05-10T10:12:47.394Z,19.00
2019-05-10T10:13:50.143Z,18.84
2019-05-10T10:14:47.261Z,18.55
2019-05-10T10:15:49.839Z,17.70
2019-05-10T10:16:57.916Z,17.79
2019-05-10T10:17:47.740Z,17.26
2019-05-10T10:18:47.803Z,17.64
2019-05-10T10:19:48.208Z,17.59
2019-05-10T10:20:48.430Z,17.36
2019-05-10T10:21:48.866Z,17.60
2019-05-10T10:22:54.322Z,17.23
2019-05-10T10:23:49.744Z,16.76
2019-05-10T10:24:54.861Z,16.46
2019-05-10T10:25:50.624Z,16.58
2019-05-10T10:26:54.014Z,16.71
2019-05-10T10:27:51.491Z,16.53
2019-05-10T10:28:55.251Z,16.74
2019-05-10T10:29:52.363Z,16.75
2019-05-10T10:31:03.425Z,16.64
2019-05-10T10:31:56.654Z,16.60
2019-05-10T10:32:53.682Z,17.08
2019-05-10T10:33:58.348Z,17.16
2019-05-10T10:34:54.905Z,16.91
2019-05-10T10:35:56.525Z,17.08
2019-05-10T10:36:57.895Z,17.39
2019-05-10T10:37:57.485Z,17.60
2019-05-10T10:38:56.298Z,17.65
2019-05-10T10:40:00.687Z,17.51
2019-05-10T10:40:57.694Z,17.67
2019-05-10T10:42:02.545Z,17.72
2019-05-10T10:42:58.060Z,17.60
2019-05-10T10:43:58.542Z,17.78
2019-05-10T10:44:58.926Z,17.46
2019-05-10T10:45:59.365Z,17.41
2019-05-10T10:46:59.807Z,17.76
2019-05-10T10:48:02.534Z,17.89
2019-05-10T10:49:00.682Z,18.07
2019-05-10T10:50:03.028Z,18.01
2019-05-10T10:51:01.554Z,17.67
2019-05-10T10:52:05.556Z,17.26
2019-05-10T10:53:02.437Z,17.72
2019-05-10T10:54:02.872Z,18.22
2019-05-10T10:55:05.581Z,18.59
2019-05-10T10:56:04.090Z,18.93
2019-05-10T10:57:04.190Z,19.30
2019-05-10T10:58:07.151Z,19.64
2019-05-10T10:59:07.380Z,19.96
2019-05-10T11:00:07.647Z,20.09
2019-05-10T11:01:10.836Z,20.09
2019-05-10T11:02:29.022Z,20.37
2019-05-10T11:03:06.829Z,20.37
2019-05-10T11:04:08.254Z,20.19
2019-05-10T11:05:07.716Z,19.62
2019-05-10T11:06:08.163Z,19.48
2019-05-10T11:07:10.902Z,19.16
2019-05-10T11:08:11.027Z,19.62
2019-05-10T11:09:09.487Z,19.67
2019-05-10T11:10:16.155Z,19.26
2019-05-10T11:11:10.673Z,18.95
2019-05-10T11:12:14.591Z,18.35
2019-05-10T11:13:18.768Z,18.50
2019-05-10T11:14:11.680Z,18.90
2019-05-10T11:15:16.390Z,19.36
2019-05-10T11:16:15.599Z,20.11
2019-05-10T11:17:13.011Z,20.02
2019-05-10T11:18:13.448Z,20.92
2019-05-10T11:19:15.743Z,20.90
2019-05-10T11:20:14.334Z,21.17
2019-05-10T11:21:14.778Z,21.58
2019-05-10T11:22:15.223Z,21.83
2019-05-10T11:23:16.345Z,21.75
2019-05-10T11:24:18.351Z,21.14
2019-05-10T11:25:16.560Z,20.31
2019-05-10T11:26:17.003Z,20.22
2019-05-10T11:27:17.499Z,20.29
2019-05-10T11:28:17.901Z,20.10
2019-05-10T11:29:25.572Z,20.02
2019-05-10T11:30:18.783Z,20.06
2019-05-10T11:31:21.409Z,20.11
2019-05-10T11:32:21.299Z,19.85
2019-05-10T11:33:29.149Z,19.81
2019-05-10T11:34:21.647Z,19.52
2019-05-10T11:35:30.324Z,20.00
2019-05-10T11:36:21.446Z,20.31
2019-05-10T11:37:30.911Z,20.28
2019-05-10T11:38:22.334Z,20.09
2019-05-10T11:39:26.427Z,20.13
2019-05-10T11:40:29.783Z,20.02
2019-05-10T11:41:24.623Z,20.00
2019-05-10T11:42:24.103Z,20.03
2019-05-10T11:43:27.000Z,20.07
2019-05-10T11:44:25.933Z,19.51
2019-05-10T11:45:34.386Z,19.22
2019-05-10T11:46:27.945Z,19.31
2019-05-10T11:47:27.356Z,18.81
2019-05-10T11:48:28.948Z,19.07
2019-05-10T11:49:27.228Z,19.27
2019-05-10T11:50:32.517Z,19.33
2019-05-10T11:51:28.085Z,18.84
2019-05-10T11:52:29.052Z,19.16
2019-05-10T11:53:31.534Z,19.19
2019-05-10T11:54:31.744Z,18.84
2019-05-10T11:55:30.924Z,18.37
2019-05-10T11:56:32.242Z,17.86
2019-05-10T11:57:32.940Z,17.64
2019-05-10T11:58:31.350Z,17.85
2019-05-10T11:59:33.750Z,18.23
2019-05-10T12:01:32.490Z,18.33
2019-05-10T12:02:38.297Z,18.23
2019-05-10T12:03:33.368Z,18.50
2019-05-10T12:04:39.172Z,18.59
2019-05-10T12:05:34.253Z,18.93
2019-05-10T12:06:34.690Z,19.08
2019-05-10T12:07:43.361Z,19.24
2019-05-10T12:08:35.572Z,19.52
2019-05-10T12:09:36.023Z,19.89
2019-05-10T12:10:42.567Z,20.10
2019-05-10T12:11:43.727Z,20.51
2019-05-10T12:13:37.789Z,19.96
2019-05-10T12:14:38.231Z,20.00
2019-05-10T12:15:42.583Z,20.11
2019-05-10T12:16:41.946Z,20.40
2019-05-10T12:17:43.810Z,20.39
2019-05-10T12:18:46.387Z,19.55
2019-05-10T12:19:47.862Z,19.71
2019-05-10T12:20:54.072Z,19.26
2019-05-10T12:21:41.328Z,19.18
2019-05-10T12:22:47.200Z,19.54
2019-05-10T12:23:50.253Z,19.41
2019-05-10T12:24:57.069Z,19.64
2019-05-10T12:25:59.005Z,20.06
2019-05-10T12:26:03.776Z,18.37
2019-05-10T12:26:05.330Z,19.66
2019-05-10T12:27:48.693Z,20.36
2019-05-10T12:28:44.424Z,20.14
2019-05-10T12:29:46.499Z,19.77
2019-05-10T12:30:45.305Z,19.81
2019-05-10T12:31:47.476Z,19.82
2019-05-10T12:32:55.730Z,19.56
2019-05-10T12:33:46.629Z,19.71
2019-05-10T12:34:51.983Z,19.30
2019-05-10T12:35:47.641Z,19.40
2019-05-10T12:36:47.954Z,19.27
2019-05-10T12:37:51.432Z,18.78
2019-05-10T12:38:48.839Z,18.47
2019-05-10T12:39:52.889Z,18.44
2019-05-10T12:40:51.354Z,18.35
2019-05-10T12:41:53.083Z,18.26
2019-05-10T12:42:50.606Z,18.07
2019-05-10T12:43:51.717Z,17.92
2019-05-10T12:44:52.699Z,17.80
2019-05-10T12:45:52.019Z,17.74
2019-05-10T12:46:54.169Z,17.54
2019-05-10T12:47:52.777Z,17.33
2019-05-10T12:48:53.224Z,17.22
2019-05-10T12:50:01.785Z,17.09
2019-05-10T12:52:28.894Z,16.84
2019-05-10T12:53:30.948Z,16.90
2019-05-10T12:55:23.236Z,17.05
2019-05-10T12:56:23.636Z,17.30
2019-05-10T12:58:18.205Z,17.45
2019-05-10T12:59:18.637Z,17.51
2019-05-10T13:01:13.234Z,17.36
2019-05-10T13:02:13.670Z,17.14
2019-05-10T13:04:14.951Z,17.26